createdAt,value
2024-01-04T00:00:16.518Z,5.43
2024-01-04T00:02:45.154Z,3.78
2024-01-04T00:05:13.181Z,3.63
2024-01-04T00:07:41.233Z,3.95
2024-01-04T00:10:09.807Z,6.35
2024-01-04T00:12:38.016Z,3.42
2024-01-04T00:15:07.400Z,2.88
2024-01-04T00:17:35.410Z,1.48
2024-01-04T00:20:04.217Z,3.90
2024-01-04T00:22:32.589Z,2.63
2024-01-04T00:25:00.762Z,3.70
2024-01-04T00:27:28.874Z,2.80
2024-01-04T00:34:53.372Z,3.75
2024-01-04T00:37:23.164Z,3.47
2024-01-04T00:39:51.542Z,5.32
2024-01-04T00:42:19.535Z,4.05
2024-01-04T00:44:47.702Z,3.33
2024-01-04T00:47:15.569Z,4.00
2024-01-04T00:49:43.571Z,3.33
2024-01-04T00:52:11.731Z,2.90
2024-01-04T00:54:39.641Z,5.22
2024-01-04T00:57:09.630Z,4.32
2024-01-04T00:59:37.752Z,7.13
2024-01-04T01:02:05.985Z,4.75
2024-01-04T01:04:34.040Z,3.58
2024-01-04T01:07:01.908Z,4.32
2024-01-04T01:09:29.945Z,4.32
2024-01-04T01:11:58.142Z,3.78
2024-01-04T01:14:26.551Z,3.78
2024-01-04T01:16:54.427Z,3.90
2024-01-04T01:19:22.608Z,2.88
2024-01-04T01:21:50.618Z,5.25
2024-01-04T01:24:18.970Z,4.20
2024-01-04T01:26:47.105Z,2.95
2024-01-04T01:29:15.187Z,4.38
2024-01-04T01:31:44.129Z,1.95
2024-01-04T01:36:43.581Z,2.95
2024-01-04T01:39:12.653Z,5.50
2024-01-04T01:41:40.816Z,2.70
2024-01-04T01:44:08.996Z,4.18
2024-01-04T01:46:37.388Z,3.78
2024-01-04T01:49:05.457Z,4.63
2024-01-04T01:51:33.535Z,3.72
2024-01-04T01:54:02.654Z,4.00
2024-01-04T01:56:32.416Z,6.40
2024-01-04T02:02:51.175Z,3.58
2024-01-04T02:10:15.322Z,3.53
2024-01-04T02:12:44.020Z,3.33
2024-01-04T02:15:12.173Z,1.65
2024-01-04T02:17:41.355Z,6.97
2024-01-04T02:20:12.632Z,4.28
2024-01-04T02:22:45.575Z,3.42
2024-01-04T02:25:13.521Z,4.55
2024-01-04T02:27:41.481Z,3.35
2024-01-04T02:30:09.844Z,3.80
2024-01-04T02:32:38.108Z,3.45
2024-01-04T02:35:06.684Z,4.38
2024-01-04T02:37:34.670Z,3.65
2024-01-04T02:40:02.812Z,3.20
2024-01-04T02:42:32.470Z,4.45
2024-01-04T02:45:00.769Z,4.70
2024-01-04T02:47:28.821Z,2.80
2024-01-04T02:49:56.697Z,2.65
2024-01-04T02:52:24.657Z,3.38
2024-01-04T02:54:52.569Z,2.70
2024-01-04T02:57:20.569Z,3.15
2024-01-04T03:03:13.709Z,3.05
2024-01-04T03:05:41.996Z,4.72
2024-01-04T03:08:09.887Z,5.63
2024-01-04T03:10:37.805Z,4.18
2024-01-04T03:13:08.178Z,4.82
2024-01-04T03:15:36.156Z,3.83
2024-01-04T03:18:04.450Z,3.67
2024-01-04T03:20:32.423Z,3.65
2024-01-04T03:23:00.498Z,2.72
2024-01-04T03:25:28.460Z,3.08
2024-01-04T03:27:56.336Z,4.55
2024-01-04T03:30:24.424Z,14.32
2024-01-04T03:32:52.712Z,6.90
2024-01-04T03:35:20.745Z,3.05
2024-01-04T03:37:48.669Z,2.80
2024-01-04T03:40:16.840Z,4.13
2024-01-04T03:42:44.813Z,4.38
2024-01-04T03:45:12.768Z,3.63
2024-01-04T03:47:41.369Z,2.83
2024-01-04T03:50:09.571Z,4.72
2024-01-04T03:52:37.532Z,5.15
2024-01-04T03:55:05.868Z,11.48
2024-01-04T03:57:35.733Z,13.00
2024-01-04T04:00:04.776Z,14.75
2024-01-04T04:02:40.085Z,12.40
2024-01-04T04:05:08.430Z,8.07
2024-01-04T04:07:36.458Z,9.02
2024-01-04T04:10:04.759Z,10.85
2024-01-04T04:12:32.770Z,14.60
2024-01-04T04:15:02.466Z,18.20
2024-01-04T04:17:31.771Z,7.78
2024-01-04T04:19:59.918Z,5.18
2024-01-04T04:22:27.841Z,2.72
2024-01-04T04:24:55.815Z,3.15
2024-01-04T04:27:23.730Z,3.83
2024-01-04T04:29:51.708Z,4.28
2024-01-04T04:32:19.910Z,2.72
2024-01-04T04:34:48.089Z,3.60
2024-01-04T04:37:16.286Z,3.55
2024-01-04T04:39:46.349Z,4.25
2024-01-04T04:42:14.501Z,5.25
2024-01-04T04:44:42.652Z,8.43
2024-01-04T04:47:10.744Z,3.30
2024-01-04T04:49:38.680Z,2.97
2024-01-04T04:52:06.886Z,3.25
2024-01-04T04:54:37.822Z,3.78
2024-01-04T04:57:06.662Z,2.35
2024-01-04T04:59:34.858Z,3.67
2024-01-04T05:02:02.996Z,2.80
2024-01-04T05:04:30.902Z,3.25
2024-01-04T05:06:58.976Z,3.25
2024-01-04T05:09:27.072Z,3.65
2024-01-04T05:11:55.311Z,9.45
2024-01-04T05:14:23.278Z,4.60
2024-01-04T05:16:51.600Z,3.78
2024-01-04T05:19:19.846Z,2.60
2024-01-04T05:21:47.883Z,3.20
2024-01-04T05:24:15.825Z,10.75
2024-01-04T05:26:43.903Z,4.13
2024-01-04T05:29:11.766Z,2.40
2024-01-04T05:31:39.709Z,3.30
2024-01-04T05:34:07.888Z,3.67
2024-01-04T05:36:36.116Z,9.75
2024-01-04T05:39:04.818Z,4.97
2024-01-04T05:41:33.193Z,31.98
2024-01-04T05:44:01.222Z,24.38
2024-01-04T05:46:29.280Z,11.02
2024-01-04T05:48:57.408Z,5.20
2024-01-04T05:51:25.552Z,10.45
2024-01-04T05:54:10.270Z,10.20
2024-01-04T05:56:38.944Z,10.15
2024-01-04T05:59:07.001Z,7.72
2024-01-04T06:01:35.374Z,11.90
2024-01-04T06:04:03.449Z,13.68
2024-01-04T06:06:31.608Z,13.15
2024-01-04T06:08:59.665Z,9.75
2024-01-04T06:11:27.728Z,8.45
2024-01-04T06:13:56.129Z,11.98
2024-01-04T06:16:24.206Z,10.90
2024-01-04T06:18:53.078Z,20.70
2024-01-04T06:21:21.295Z,13.82
2024-01-04T06:23:49.250Z,28.17
2024-01-04T06:26:20.709Z,7.90
2024-01-04T06:28:51.233Z,36.85
2024-01-04T06:31:19.300Z,13.93
2024-01-04T06:33:47.556Z,32.85
2024-01-04T06:36:15.683Z,41.47
2024-01-04T06:38:43.581Z,29.05
2024-01-04T06:41:13.432Z,15.70
2024-01-04T06:43:41.507Z,41.47
2024-01-04T06:46:12.014Z,17.65
2024-01-04T06:48:41.778Z,51.50
2024-01-04T06:51:10.049Z,63.22
2024-01-04T06:53:38.279Z,50.47
2024-01-04T06:56:07.343Z,30.38
2024-01-04T07:01:03.154Z,18.83
2024-01-04T07:03:31.859Z,10.45
2024-01-04T07:06:00.018Z,11.32
2024-01-04T07:08:28.069Z,9.18
2024-01-04T07:10:55.915Z,8.38
2024-01-04T07:13:23.897Z,8.75
2024-01-04T07:15:51.822Z,13.77
2024-01-04T07:18:19.940Z,8.10
2024-01-04T07:20:48.230Z,11.23
2024-01-04T07:23:16.720Z,10.82
2024-01-04T07:25:45.281Z,9.82
2024-01-04T07:28:13.184Z,17.02
2024-01-04T07:30:41.689Z,5.90
2024-01-04T07:33:10.010Z,8.48
2024-01-04T07:35:38.674Z,30.70
2024-01-04T07:38:06.813Z,12.90
2024-01-04T07:40:34.859Z,11.05
2024-01-04T07:43:02.842Z,10.85
2024-01-04T07:45:30.890Z,8.30
2024-01-04T07:47:58.995Z,11.80
2024-01-04T07:50:27.920Z,18.02
2024-01-04T07:52:56.973Z,7.57
2024-01-04T07:55:25.062Z,5.13
2024-01-04T07:57:53.370Z,5.82
2024-01-04T08:00:21.664Z,7.93
2024-01-04T08:02:49.723Z,6.80
2024-01-04T08:05:17.987Z,8.85
2024-01-04T08:07:45.985Z,4.70
2024-01-04T08:10:14.071Z,3.10
2024-01-04T08:12:42.431Z,4.43
2024-01-04T08:15:11.406Z,3.85
2024-01-04T08:17:39.862Z,8.50
2024-01-04T08:20:08.873Z,8.35
2024-01-04T08:25:05.842Z,6.40
2024-01-04T08:27:33.885Z,4.03
2024-01-04T08:30:01.963Z,3.65
2024-01-04T08:32:30.053Z,3.72
2024-01-04T08:34:58.071Z,6.28
2024-01-04T08:37:26.153Z,3.97
2024-01-04T08:39:54.497Z,4.15
2024-01-04T08:42:22.579Z,4.10
2024-01-04T08:44:50.613Z,12.93
2024-01-04T08:47:18.582Z,5.13
2024-01-04T08:49:46.620Z,5.20
2024-01-04T08:52:14.652Z,4.03
2024-01-04T08:54:43.853Z,4.70
2024-01-04T08:57:11.958Z,5.45
2024-01-04T08:59:39.995Z,4.50
2024-01-04T09:02:10.536Z,5.30
2024-01-04T09:04:39.412Z,5.28
2024-01-04T09:07:08.650Z,6.72
2024-01-04T09:09:37.039Z,5.55
2024-01-04T09:12:05.424Z,5.05
2024-01-04T09:14:33.882Z,4.70
2024-01-04T09:17:02.167Z,4.47
2024-01-04T09:19:30.310Z,5.85
2024-01-04T09:21:58.674Z,4.72
2024-01-04T09:24:26.788Z,5.10
2024-01-04T09:26:54.760Z,5.25
2024-01-04T09:29:22.850Z,5.03
2024-01-04T09:31:50.880Z,6.10
2024-01-04T09:34:19.152Z,8.38
2024-01-04T09:36:47.536Z,5.50
2024-01-04T09:39:19.592Z,3.35
2024-01-04T09:41:49.613Z,7.50
2024-01-04T09:44:18.019Z,6.05
2024-01-04T09:46:46.820Z,4.13
2024-01-04T09:49:15.666Z,4.75
2024-01-04T09:51:44.095Z,6.38
2024-01-04T09:54:12.941Z,4.47
2024-01-04T09:56:47.765Z,4.97
2024-01-04T09:59:15.954Z,4.90
2024-01-04T10:01:44.636Z,5.45
2024-01-04T10:04:14.601Z,7.20
2024-01-04T10:06:45.054Z,4.88
2024-01-04T10:09:55.349Z,5.88
2024-01-04T10:12:24.635Z,4.65
2024-01-04T10:14:52.736Z,4.65
2024-01-04T10:17:21.025Z,5.35
2024-01-04T10:19:49.069Z,6.32
2024-01-04T10:22:23.438Z,4.20
2024-01-04T10:24:53.121Z,4.80
2024-01-04T10:27:21.642Z,5.35
2024-01-04T10:29:53.106Z,6.22
2024-01-04T10:32:21.261Z,4.35
2024-01-04T10:34:49.245Z,5.63
2024-01-04T10:37:23.817Z,5.00
2024-01-04T10:39:59.601Z,4.55
2024-01-04T10:42:28.463Z,6.80
2024-01-04T10:44:56.721Z,7.85
2024-01-04T10:47:25.359Z,5.15
2024-01-04T10:49:59.437Z,6.95
2024-01-04T10:52:35.250Z,4.15
2024-01-04T10:55:05.379Z,4.95
2024-01-04T10:57:35.086Z,6.72
2024-01-04T11:00:05.110Z,3.33
2024-01-04T11:02:35.051Z,6.32
2024-01-04T11:05:05.228Z,4.70
2024-01-04T11:07:35.198Z,4.25
2024-01-04T11:10:03.318Z,4.68
2024-01-04T11:12:32.915Z,6.15
2024-01-04T11:15:01.147Z,5.32
2024-01-04T11:17:54.556Z,3.80
2024-01-04T11:20:36.966Z,7.20
2024-01-04T11:23:22.444Z,2.22
2024-01-04T11:26:02.401Z,5.40
2024-01-04T11:28:39.464Z,6.95
2024-01-04T11:31:09.105Z,4.72
2024-01-04T11:33:44.158Z,3.08
2024-01-04T11:36:18.001Z,6.85
2024-01-04T11:38:47.646Z,7.47
2024-01-04T11:41:15.692Z,5.53
2024-01-04T11:43:48.047Z,6.10
2024-01-04T11:46:24.069Z,6.72
2024-01-04T11:49:03.759Z,3.08
2024-01-04T11:51:46.577Z,5.32
2024-01-04T11:54:17.033Z,6.68
2024-01-04T11:56:47.045Z,5.88
2024-01-04T11:59:19.909Z,4.63
2024-01-04T12:01:48.345Z,3.90
2024-01-04T12:04:17.536Z,18.20
2024-01-04T12:06:47.464Z,3.88
2024-01-04T12:09:19.106Z,6.05
2024-01-04T12:11:59.040Z,6.57
2024-01-04T12:14:27.801Z,4.57
2024-01-04T12:19:23.812Z,3.65
2024-01-04T12:24:21.027Z,4.68
2024-01-04T12:26:49.938Z,4.30
2024-01-04T12:29:18.151Z,4.45
2024-01-04T12:31:46.502Z,3.45
2024-01-04T12:34:14.951Z,3.58
2024-01-04T12:39:15.264Z,5.30
2024-01-04T12:41:46.763Z,6.97
2024-01-04T12:44:15.865Z,4.93
2024-01-04T12:46:45.685Z,3.63
2024-01-04T12:49:17.527Z,6.30
2024-01-04T12:51:48.184Z,5.13
2024-01-04T12:54:16.670Z,3.97
2024-01-04T12:56:44.821Z,3.95
2024-01-04T12:59:14.182Z,4.80
2024-01-04T13:01:42.228Z,4.50
2024-01-04T13:04:10.188Z,5.25
2024-01-04T13:06:38.567Z,5.85
2024-01-04T13:09:07.326Z,5.18
2024-01-04T13:14:04.017Z,6.65
2024-01-04T13:19:00.367Z,5.18
2024-01-04T13:21:28.624Z,6.18
2024-01-04T13:23:57.049Z,3.53
2024-01-04T13:26:25.267Z,4.57
2024-01-04T13:28:53.480Z,3.97
2024-01-04T13:31:22.145Z,4.30
2024-01-04T13:33:50.527Z,8.48
2024-01-04T13:36:19.488Z,11.30
2024-01-04T13:38:47.776Z,6.35
2024-01-04T13:41:15.850Z,10.02
2024-01-04T13:43:44.010Z,12.05
2024-01-04T13:46:11.990Z,7.28
2024-01-04T13:48:40.370Z,22.13
2024-01-04T13:51:08.799Z,7.22
2024-01-04T13:53:36.823Z,8.98
2024-01-04T13:56:05.205Z,6.25
2024-01-04T13:58:33.380Z,8.68
2024-01-04T14:01:01.373Z,7.35
2024-01-04T14:03:29.427Z,159.00
2024-01-04T14:05:57.652Z,10.07
2024-01-04T14:08:26.924Z,6.47
2024-01-04T14:10:57.368Z,44.83
2024-01-04T14:13:25.343Z,11.82
2024-01-04T14:15:53.282Z,11.98
2024-01-04T14:22:56.515Z,4.32
2024-01-04T14:25:24.780Z,4.43
2024-01-04T14:27:52.741Z,7.95
2024-01-04T14:30:20.993Z,10.32
2024-01-04T14:32:49.793Z,3.72
2024-01-04T14:35:17.963Z,8.45
2024-01-04T14:37:46.094Z,5.95
2024-01-04T14:40:19.692Z,16.52
2024-01-04T14:42:48.841Z,12.25
2024-01-04T14:47:47.489Z,5.78
2024-01-04T14:50:17.245Z,3.70
2024-01-04T14:52:45.705Z,3.10
2024-01-04T14:55:14.316Z,5.20
2024-01-04T14:57:43.954Z,6.95
2024-01-04T15:00:13.985Z,4.90
2024-01-04T15:02:42.489Z,10.30
2024-01-04T15:05:11.305Z,11.63
2024-01-04T15:07:40.260Z,13.65
2024-01-04T15:10:10.717Z,16.75
2024-01-04T15:12:41.316Z,8.38
2024-01-04T15:15:17.045Z,21.30
2024-01-04T15:17:52.312Z,25.05
2024-01-04T15:20:20.856Z,11.73
2024-01-04T15:22:49.190Z,24.73
2024-01-04T15:25:17.764Z,9.57
2024-01-04T15:27:46.383Z,9.23
2024-01-04T15:46:30.819Z,33.50
2024-01-04T15:48:59.692Z,31.25
2024-01-04T15:51:28.562Z,40.72
2024-01-04T15:54:00.333Z,6.60
2024-01-04T15:56:32.616Z,7.75
2024-01-04T15:59:01.729Z,13.90
2024-01-04T16:01:30.691Z,10.25
2024-01-04T16:04:00.072Z,8.77
2024-01-04T16:06:28.785Z,5.82
2024-01-04T16:08:58.019Z,5.10
2024-01-04T16:11:26.751Z,5.53
2024-01-04T16:13:55.670Z,5.95
2024-01-04T16:16:24.666Z,3.40
2024-01-04T16:18:53.951Z,7.93
2024-01-04T16:21:22.686Z,5.40
2024-01-04T16:23:52.170Z,5.28
2024-01-04T16:26:21.173Z,8.73
2024-01-04T16:28:49.929Z,15.77
2024-01-04T16:31:18.672Z,23.67
2024-01-04T16:33:49.084Z,7.90
2024-01-04T16:36:18.857Z,16.45
2024-01-04T16:38:48.278Z,22.83
2024-01-04T16:41:16.827Z,7.90
2024-01-04T16:43:45.482Z,8.70
2024-01-04T16:46:14.002Z,17.15
2024-01-04T16:48:42.986Z,13.73
2024-01-04T16:51:14.360Z,11.77
2024-01-04T16:53:44.150Z,25.63
2024-01-04T16:56:13.577Z,13.90
2024-01-04T16:58:42.256Z,12.73
2024-01-04T17:01:11.248Z,30.48
2024-01-04T17:04:01.767Z,19.83
2024-01-04T17:06:31.039Z,14.05
2024-01-04T17:09:02.436Z,25.67
2024-01-04T17:11:30.904Z,15.95
2024-01-04T17:13:59.431Z,12.50
2024-01-04T17:16:27.874Z,14.55
2024-01-04T17:18:56.749Z,14.18
2024-01-04T17:21:25.483Z,12.25
2024-01-04T17:23:54.248Z,16.17
2024-01-04T17:26:23.021Z,22.92
2024-01-04T17:28:51.636Z,14.43
2024-01-04T17:31:21.498Z,16.48
2024-01-04T17:33:50.222Z,15.65
2024-01-04T17:36:25.884Z,10.55
2024-01-04T17:39:01.462Z,9.63
2024-01-04T17:41:32.831Z,8.13
2024-01-04T17:44:01.000Z,8.38
2024-01-04T17:46:29.096Z,10.95
2024-01-04T17:48:57.991Z,7.68
2024-01-04T17:51:26.415Z,7.93
2024-01-04T17:53:54.554Z,12.18
2024-01-04T17:56:23.278Z,9.27
2024-01-04T17:58:51.286Z,8.30
2024-01-04T18:01:23.586Z,9.15
2024-01-04T18:03:52.266Z,13.48
2024-01-04T18:06:21.243Z,13.45
2024-01-04T18:08:53.336Z,5.97
2024-01-04T18:11:23.152Z,11.88
2024-01-04T18:13:51.789Z,10.43
2024-01-04T18:16:20.674Z,9.13
2024-01-04T18:18:50.289Z,8.18
2024-01-04T18:21:20.582Z,8.35
2024-01-04T18:23:50.240Z,6.72
2024-01-04T18:26:19.007Z,10.60
2024-01-04T18:28:47.803Z,14.18
2024-01-04T18:31:16.579Z,19.55
2024-01-04T18:33:45.804Z,18.10
2024-01-04T18:36:15.280Z,22.88
2024-01-04T18:38:48.002Z,37.13
2024-01-04T18:41:24.192Z,95.30
2024-01-04T18:43:53.194Z,28.85
2024-01-04T18:46:21.829Z,23.20
2024-01-04T18:48:50.529Z,17.90
2024-01-04T18:53:49.104Z,8.80
2024-01-04T18:56:18.285Z,11.15
2024-01-04T19:01:15.667Z,11.93
2024-01-04T19:03:44.360Z,10.93
2024-01-04T19:06:13.285Z,11.60
2024-01-04T19:11:12.044Z,23.52
2024-01-04T19:13:42.313Z,25.60
2024-01-04T19:16:11.051Z,27.42
2024-01-04T19:18:50.078Z,23.35
2024-01-04T19:21:20.853Z,30.25
2024-01-04T19:23:49.778Z,25.90
2024-01-04T19:26:18.724Z,29.80
2024-01-04T19:28:49.067Z,24.05
2024-01-04T19:31:22.352Z,22.67
2024-01-04T19:33:52.210Z,28.80
2024-01-04T19:36:21.086Z,25.75
2024-01-04T19:38:49.833Z,24.67
2024-01-04T19:41:20.775Z,25.48
2024-01-04T19:43:49.558Z,37.03
2024-01-04T19:46:19.448Z,38.92
2024-01-04T19:48:48.304Z,45.50
2024-01-04T19:51:17.251Z,47.25
2024-01-04T19:53:45.950Z,44.55
2024-01-04T19:56:14.745Z,51.40
2024-01-04T20:01:13.498Z,41.75
2024-01-04T20:03:43.657Z,74.20
2024-01-04T20:06:12.461Z,55.45
2024-01-04T20:08:41.138Z,57.60
2024-01-04T20:11:11.178Z,51.45
2024-01-04T20:13:59.950Z,31.83
2024-01-04T20:16:28.979Z,25.52
2024-01-04T20:18:58.210Z,28.55
2024-01-04T20:21:49.569Z,23.35
2024-01-04T20:24:19.294Z,19.23
2024-01-04T20:26:47.841Z,23.17
2024-01-04T20:29:18.754Z,106.00
2024-01-04T20:31:48.257Z,177.00
2024-01-04T20:34:17.197Z,47.92
2024-01-04T20:39:16.018Z,15.30
2024-01-04T20:41:45.210Z,123.45
2024-01-04T20:46:43.119Z,47.47
2024-01-04T20:49:12.474Z,18.33
2024-01-04T20:51:41.424Z,12.65
2024-01-04T20:54:11.702Z,35.28
2024-01-04T20:56:40.963Z,34.13
2024-01-04T20:59:12.997Z,35.05
2024-01-04T21:01:41.726Z,22.30
2024-01-04T21:04:10.648Z,33.00
2024-01-04T21:06:41.062Z,36.75
2024-01-04T21:09:12.909Z,36.65
2024-01-04T21:11:41.666Z,32.78
2024-01-04T21:14:25.057Z,55.92
2024-01-04T21:16:53.430Z,40.63
2024-01-04T21:19:21.709Z,34.05
2024-01-04T21:21:50.236Z,37.88
2024-01-04T21:24:19.057Z,34.15
2024-01-04T21:26:47.828Z,39.55
2024-01-04T21:29:16.688Z,52.88
2024-01-04T21:31:44.923Z,45.45
2024-01-04T21:34:14.067Z,34.72
2024-01-04T21:36:43.131Z,29.45
2024-01-04T21:39:13.060Z,23.48
2024-01-04T21:41:45.015Z,27.80
2024-01-04T21:44:13.898Z,20.75
2024-01-04T21:46:43.059Z,16.60
2024-01-04T21:49:11.690Z,25.83
2024-01-04T21:51:40.123Z,52.88
2024-01-04T21:54:08.703Z,29.40
2024-01-04T21:56:37.378Z,20.67
2024-01-04T21:59:26.228Z,16.45
2024-01-04T22:01:58.089Z,19.25
2024-01-04T22:04:26.776Z,20.02
2024-01-04T22:06:55.321Z,15.43
2024-01-04T22:09:23.538Z,15.88
2024-01-04T22:11:51.601Z,17.42
2024-01-04T22:14:19.573Z,13.52
2024-01-04T22:16:47.498Z,18.13
2024-01-04T22:19:15.932Z,18.40
2024-01-04T22:21:44.020Z,26.80
2024-01-04T22:24:11.943Z,23.70
2024-01-04T22:26:41.001Z,26.45
2024-01-04T22:29:11.910Z,16.70
2024-01-04T22:31:39.846Z,18.50
2024-01-04T22:34:08.462Z,40.88
2024-01-04T22:36:38.989Z,35.10
2024-01-04T22:39:07.014Z,39.67
2024-01-04T22:41:35.121Z,39.55
2024-01-04T22:44:03.020Z,28.70
2024-01-04T22:46:31.111Z,24.20
2024-01-04T22:48:59.067Z,27.05
2024-01-04T22:51:30.474Z,28.48
2024-01-04T22:53:58.709Z,28.38
2024-01-04T22:56:26.646Z,19.15
2024-01-04T22:58:54.624Z,12.18
2024-01-04T23:01:22.805Z,13.13
2024-01-04T23:03:51.330Z,14.18
2024-01-04T23:06:19.370Z,40.10
2024-01-04T23:08:47.978Z,30.92
2024-01-04T23:11:15.928Z,24.60
2024-01-04T23:13:43.828Z,44.85
2024-01-04T23:16:14.914Z,58.95
2024-01-04T23:18:43.123Z,40.13
2024-01-04T23:21:11.265Z,28.60
2024-01-04T23:23:39.277Z,43.78
2024-01-04T23:26:07.254Z,44.72
2024-01-04T23:28:35.645Z,72.78
2024-01-04T23:31:03.664Z,75.88
2024-01-04T23:33:37.306Z,103.05
2024-01-04T23:36:10.950Z,96.35
2024-01-04T23:38:39.029Z,90.43
2024-01-04T23:41:07.214Z,132.40
2024-01-04T23:43:35.212Z,98.53
2024-01-04T23:46:03.181Z,86.97
2024-01-04T23:48:31.382Z,64.57
2024-01-04T23:50:59.845Z,67.32
2024-01-04T23:53:27.898Z,72.57
2024-01-04T23:55:55.946Z,42.75
2024-01-04T23:58:23.785Z,35.22
